Observation data for Anton on 09/19/2019      Previous  Date  Next       Current Mesonet Observations  Soil Data  Daily Summary Page  Observations in Plain Language
KAOS 190500Z 10007KT 22/17 A3002 RMK A01 T02170169  RH  078%=      5-min Rain = 0
KAOS 190505Z 10007KT 22/17 A3002 RMK A01 T02170168  RH  078%=      5-min Rain = 0
KAOS 190510Z 10007KT 22/17 A3002 RMK A01 T02180168  RH  077%=      5-min Rain = 0
KAOS 190515Z 10006KT 22/17 A3002 RMK A01 T02170167  RH  077%=      5-min Rain = 0
KAOS 190520Z 11006KT 22/17 A3002 RMK A01 T02170166  RH  077%=      5-min Rain = 0
KAOS 190525Z 12007KT 22/16 A3002 RMK A01 T02200163  RH  074%=      5-min Rain = 0
KAOS 190530Z 12008KT 22/16 A3002 RMK A01 T02240159  RH  070%=      5-min Rain = 0
KAOS 190535Z 12008KT 23/16 A3002 RMK A01 T02280157  RH  067%=      5-min Rain = 0
KAOS 190540Z 12008KT 23/16 A3002 RMK A01 T02290156  RH  066%=      5-min Rain = 0
KAOS 190545Z 12008KT 23/16 A3002 RMK A01 T02300155  RH  066%=      5-min Rain = 0
KAOS 190550Z 12008KT 23/15 A3002 RMK A01 T02320154  RH  065%=      5-min Rain = 0
KAOS 190555Z 12008KT 23/15 A3002 RMK A01 T02330153  RH  063%=      5-min Rain = 0
KAOS 190600Z 12008KT 23/15 A3002 RMK A01 T02340153  RH  063%=      5-min Rain = 0
KAOS 190605Z 12008KT 23/15 A3002 RMK A01 T02330153  RH  063%=      5-min Rain = 0
KAOS 190610Z 12008KT 23/15 A3002 RMK A01 T02310153  RH  064%=      5-min Rain = 0
KAOS 190615Z 11007KT 23/16 A3002 RMK A01 T02290155  RH  066%=      5-min Rain = 0
KAOS 190620Z 10006KT 23/16 A3002 RMK A01 T02250158  RH  069%=      5-min Rain = 0
KAOS 190625Z 11006KT 22/16 A3002 RMK A01 T02220158  RH  070%=      5-min Rain = 0
KAOS 190630Z 11006KT 22/16 A3002 RMK A01 T02220158  RH  071%=      5-min Rain = 0
KAOS 190635Z 11006KT 22/16 A3002 RMK A01 T02200159  RH  072%=      5-min Rain = 0
KAOS 190640Z 12005KT 22/16 A3002 RMK A01 T02180159  RH  072%=      5-min Rain = 0
KAOS 190645Z 12005KT 22/16 A3002 RMK A01 T02170159  RH  073%=      5-min Rain = 0
KAOS 190650Z 12005KT 22/16 A3002 RMK A01 T02150161  RH  075%=      5-min Rain = 0
KAOS 190655Z 13005KT 21/16 A3002 RMK A01 T02110162  RH  077%=      5-min Rain = 0
KAOS 190700Z 13006KT 21/16 A3002 RMK A01 T02090162  RH  078%=      5-min Rain = 0
KAOS 190705Z 12006KT 21/16 A3002 RMK A01 T02090161  RH  077%=      5-min Rain = 0
KAOS 190710Z 12006KT 21/16 A3002 RMK A01 T02100160  RH  076%=      5-min Rain = 0
KAOS 190715Z 12006KT 21/16 A3002 RMK A01 T02100159  RH  076%=      5-min Rain = 0
KAOS 190720Z 12006KT 21/16 A3002 RMK A01 T02100159  RH  076%=      5-min Rain = 0
KAOS 190725Z 12005KT 21/16 A3002 RMK A01 T02090159  RH  077%=      5-min Rain = 0
KAOS 190730Z 12005KT 21/16 A3002 RMK A01 T02080159  RH  077%=      5-min Rain = 0
KAOS 190735Z 11005KT 21/16 A3002 RMK A01 T02080159  RH  077%=      5-min Rain = 0
KAOS 190740Z 12004KT 21/16 A3002 RMK A01 T02060160  RH  078%=      5-min Rain = 0
KAOS 190745Z 15002KT 21/16 A3003 RMK A01 T02050160  RH  079%=      5-min Rain = 0
KAOS 190750Z 18002KT 20/16 A3003 RMK A01 T02030162  RH  081%=      5-min Rain = 0
KAOS 190755Z 18003KT 20/16 A3002 RMK A01 T02010162  RH  082%=      5-min Rain = 0
KAOS 190800Z 19003KT 20/16 A3002 RMK A01 T02000160  RH  082%=      5-min Rain = 0
KAOS 190805Z 19003KT 20/16 A3002 RMK A01 T02000158  RH  080%=      5-min Rain = 0
KAOS 190810Z 18003KT 20/16 A3002 RMK A01 T02000158  RH  080%=      5-min Rain = 0
KAOS 190815Z 18003KT 20/16 A3002 RMK A01 T02010156  RH  079%=      5-min Rain = 0
KAOS 190820Z 17004KT 20/16 A3002 RMK A01 T02020155  RH  078%=      5-min Rain = 0
KAOS 190825Z 18004KT 20/16 A3002 RMK A01 T02020155  RH  078%=      5-min Rain = 0
KAOS 190830Z 18004KT 20/16 A3002 RMK A01 T01990155  RH  079%=      5-min Rain = 0
KAOS 190835Z 18004KT 20/16 A3001 RMK A01 T01970157  RH  081%=      5-min Rain = 0
KAOS 190840Z 19004KT 20/16 A3001 RMK A01 T01960158  RH  083%=      5-min Rain = 0
KAOS 190845Z 18004KT 19/15 A3001 RMK A01 T01940153  RH  081%=      5-min Rain = 0
KAOS 190850Z 19004KT 19/15 A3001 RMK A01 T01930153  RH  081%=      5-min Rain = 0
KAOS 190855Z 19004KT 19/15 A3001 RMK A01 T01920151  RH  080%=      5-min Rain = 0
KAOS 190900Z 19004KT 19/15 A3001 RMK A01 T01930150  RH  080%=      5-min Rain = 0
KAOS 190905Z 20004KT 19/15 A3001 RMK A01 T01930150  RH  079%=      5-min Rain = 0
KAOS 190910Z 19004KT 19/15 A3001 RMK A01 T01940150  RH  079%=      5-min Rain = 0
KAOS 190915Z 19004KT 19/15 A3001 RMK A01 T01940149  RH  079%=      5-min Rain = 0
KAOS 190920Z 19004KT 19/15 A3001 RMK A01 T01930149  RH  080%=      5-min Rain = 0
KAOS 190925Z 17002KT 19/15 A3001 RMK A01 T01910152  RH  082%=      5-min Rain = 0
KAOS 190930Z 15002KT 19/15 A3001 RMK A01 T01890153  RH  083%=      5-min Rain = 0
KAOS 190935Z 13002KT 19/15 A3001 RMK A01 T01890152  RH  083%=      5-min Rain = 0
KAOS 190940Z 12003KT 19/15 A3001 RMK A01 T01900152  RH  082%=      5-min Rain = 0
KAOS 190945Z 13002KT 19/15 A3001 RMK A01 T01910152  RH  082%=      5-min Rain = 0
KAOS 190950Z 14002KT 19/15 A3001 RMK A01 T01910151  RH  081%=      5-min Rain = 0
KAOS 190955Z 13002KT 19/15 A3001 RMK A01 T01910151  RH  081%=      5-min Rain = 0
KAOS 191000Z 13003KT 19/15 A3001 RMK A01 T01910153  RH  082%=      5-min Rain = 0
KAOS 191005Z 13004KT 19/16 A3001 RMK A01 T01890155  RH  084%=      5-min Rain = 0
KAOS 191010Z 14004KT 19/16 A3001 RMK A01 T01870156  RH  086%=      5-min Rain = 0
KAOS 191015Z 12004KT 19/16 A3001 RMK A01 T01850158  RH  088%=      5-min Rain = 0
KAOS 191020Z 09005KT 18/16 A3001 RMK A01 T01830158  RH  089%=      5-min Rain = 0
KAOS 191025Z 08005KT 18/16 A3001 RMK A01 T01840157  RH  088%=      5-min Rain = 0
KAOS 191030Z 08006KT 19/16 A3001 RMK A01 T01860155  RH  086%=      5-min Rain = 0
KAOS 191035Z 09006KT 19/15 A3001 RMK A01 T01900154  RH  084%=      5-min Rain = 0
KAOS 191040Z 09006KT 19/16 A3001 RMK A01 T01910155  RH  083%=      5-min Rain = 0
KAOS 191045Z 09005KT 19/16 A3001 RMK A01 T01910155  RH  083%=      5-min Rain = 0
KAOS 191050Z 09004KT 19/16 A3001 RMK A01 T01900155  RH  084%=      5-min Rain = 0
KAOS 191055Z 08004KT 19/16 A3001 RMK A01 T01890156  RH  085%=      5-min Rain = 0
KAOS 191100Z 07003KT 19/16 A3001 RMK A01 T01880157  RH  086%=      5-min Rain = 0
KAOS 191105Z 08003KT 19/16 A3001 RMK A01 T01870157  RH  086%=      5-min Rain = 0
KAOS 191110Z 10003KT 19/16 A3001 RMK A01 T01880156  RH  086%=      5-min Rain = 0
KAOS 191115Z 11003KT 19/16 A3001 RMK A01 T01870156  RH  086%=      5-min Rain = 0
KAOS 191120Z 10002KT 19/16 A3001 RMK A01 T01870156  RH  086%=      5-min Rain = 0
KAOS 191125Z 08002KT 19/16 A3001 RMK A01 T01850156  RH  087%=      5-min Rain = 0
KAOS 191130Z 07003KT 18/16 A3001 RMK A01 T01840157  RH  088%=      5-min Rain = 0
KAOS 191135Z 06003KT 18/16 A3001 RMK A01 T01820158  RH  090%=      5-min Rain = 0
KAOS 191140Z 06003KT 18/16 A3001 RMK A01 T01810157  RH  090%=      5-min Rain = 0
KAOS 191145Z 06003KT 18/16 A3001 RMK A01 T01820157  RH  090%=      5-min Rain = 0
KAOS 191150Z 06003KT 18/16 A3001 RMK A01 T01830157  RH  089%=      5-min Rain = 0
KAOS 191155Z 07004KT 19/16 A3001 RMK A01 T01850157  RH  088%=      5-min Rain = 0
KAOS 191200Z 07003KT 19/16 A3001 RMK A01 T01850157  RH  088%=      5-min Rain = 0
KAOS 191205Z 07003KT 18/16 A3001 RMK A01 T01840157  RH  088%=      5-min Rain = 0
KAOS 191210Z 08004KT 18/16 A3001 RMK A01 T01830157  RH  089%=      5-min Rain = 0
KAOS 191215Z 09003KT 18/16 A3001 RMK A01 T01820157  RH  090%=      5-min Rain = 0
KAOS 191220Z 10002KT 18/16 A3001 RMK A01 T01810157  RH  090%=      5-min Rain = 0
KAOS 191225Z 10002KT 18/16 A3001 RMK A01 T01810158  RH  090%=      5-min Rain = 0
KAOS 191230Z 10003KT 18/16 A3001 RMK A01 T01820157  RH  089%=      5-min Rain = 0
KAOS 191235Z 09003KT 18/16 A3001 RMK A01 T01840157  RH  088%=      5-min Rain = 0
KAOS 191240Z 09004KT 18/16 A3001 RMK A01 T01820157  RH  090%=      5-min Rain = 0
KAOS 191245Z 08004KT 18/16 A3001 RMK A01 T01800158  RH  091%=      5-min Rain = 0
KAOS 191250Z 09004KT 18/16 A3002 RMK A01 T01800158  RH  091%=      5-min Rain = 0
KAOS 191255Z 10005KT 18/16 A3002 RMK A01 T01820159  RH  090%=      5-min Rain = 0
KAOS 191300Z 11004KT 18/16 A3002 RMK A01 T01840159  RH  089%=      5-min Rain = 0
KAOS 191305Z 11003KT 18/16 A3002 RMK A01 T01840159  RH  089%=      5-min Rain = 0
KAOS 191310Z 10003KT 19/16 A3002 RMK A01 T01850160  RH  089%=      5-min Rain = 0
KAOS 191315Z 10002KT 19/16 A3002 RMK A01 T01880161  RH  089%=      5-min Rain = 0
KAOS 191320Z 11003KT 19/16 A3002 RMK A01 T01910162  RH  087%=      5-min Rain = 0
KAOS 191325Z 11003KT 19/16 A3002 RMK A01 T01930162  RH  086%=      5-min Rain = 0
KAOS 191330Z 11003KT 20/16 A3002 RMK A01 T01960163  RH  085%=      5-min Rain = 0
KAOS 191335Z 11004KT 20/16 A3003 RMK A01 T02000164  RH  084%=      5-min Rain = 0
KAOS 191340Z 11004KT 20/17 A3003 RMK A01 T02030165  RH  083%=      5-min Rain = 0
KAOS 191345Z 10005KT 21/17 A3003 RMK A01 T02050165  RH  082%=      5-min Rain = 0
KAOS 191350Z 10005KT 21/17 A3003 RMK A01 T02070166  RH  081%=      5-min Rain = 0
KAOS 191355Z 10005KT 21/17 A3003 RMK A01 T02090167  RH  081%=      5-min Rain = 0
KAOS 191400Z 11005KT 21/17 A3003 RMK A01 T02100167  RH  080%=      5-min Rain = 0
KAOS 191405Z 11006KT 21/17 A3003 RMK A01 T02120167  RH  079%=      5-min Rain = 0
KAOS 191410Z 10007KT 21/17 A3003 RMK A01 T02130169  RH  080%=      5-min Rain = 0
KAOS 191415Z 10007KT 21/17 A3003 RMK A01 T02140171  RH  080%=      5-min Rain = 0
KAOS 191420Z 11007KT 22/17 A3003 RMK A01 T02190171  RH  078%=      5-min Rain = 0
KAOS 191425Z 11007KT 22/17 A3003 RMK A01 T02210171  RH  077%=      5-min Rain = 0
KAOS 191430Z 11007KT 22/17 A3003 RMK A01 T02230173  RH  077%=      5-min Rain = 0
KAOS 191435Z 12007KT 23/17 A3003 RMK A01 T02290174  RH  075%=      5-min Rain = 0
KAOS 191440Z 14009KT 24/17 A3003 RMK A01 T02350171  RH  071%=      5-min Rain = 0
KAOS 191445Z 13008KT 24/17 A3003 RMK A01 T02360172  RH  071%=      5-min Rain = 0
KAOS 191450Z 13008KT 24/17 A3003 RMK A01 T02420174  RH  069%=      5-min Rain = 0
KAOS 191455Z 13010KT 24/17 A3003 RMK A01 T02430172  RH  068%=      5-min Rain = 0
KAOS 191500Z 13009KT 25/17 A3003 RMK A01 T02480172  RH  066%=      5-min Rain = 0
KAOS 191505Z 13008KT 25/17 A3003 RMK A01 T02510173  RH  065%=      5-min Rain = 0
KAOS 191510Z 13008KT 26/18 A3003 RMK A01 T02560175  RH  064%=      5-min Rain = 0
KAOS 191515Z 15009KT 26/17 A3003 RMK A01 T02610173  RH  061%=      5-min Rain = 0
KAOS 191520Z 15009KT 26/17 A3003 RMK A01 T02640172  RH  060%=      5-min Rain = 0
KAOS 191525Z 15009KT 27/17 A3003 RMK A01 T02660174  RH  060%=      5-min Rain = 0
KAOS 191530Z 16009KT 27/17 A3003 RMK A01 T02690173  RH  059%=      5-min Rain = 0
KAOS 191535Z 16009KT 27/18 A3003 RMK A01 T02720175  RH  058%=      5-min Rain = 0
KAOS 191540Z 16010KT 28/18 A3003 RMK A01 T02750175  RH  057%=      5-min Rain = 0
KAOS 191545Z 16010KT 28/18 A3003 RMK A01 T02770176  RH  057%=      5-min Rain = 0
KAOS 191550Z 16011KT 27/17 A3003 RMK A01 T02730171  RH  056%=      5-min Rain = 0
KAOS 191555Z 16009KT 27/17 A3003 RMK A01 T02730173  RH  057%=      5-min Rain = 0
KAOS 191600Z 17010KT 28/17 A3003 RMK A01 T02750171  RH  056%=      5-min Rain = 0
KAOS 191605Z 18010KT 28/17 A3003 RMK A01 T02760171  RH  056%=      5-min Rain = 0
KAOS 191610Z 16008G13KT 28/17 A3003 RMK A01 T02780171  RH  055%=      5-min Rain = 0
KAOS 191615Z 15008KT 28/17 A3003 RMK A01 T02810171  RH  054%=      5-min Rain = 0
KAOS 191620Z 15009KT 28/17 A3003 RMK A01 T02800173  RH  055%=      5-min Rain = 0
KAOS 191625Z 15009G14KT 28/17 A3003 RMK A01 T02810174  RH  055%=      5-min Rain = 0
KAOS 191630Z 16009KT 28/17 A3003 RMK A01 T02790171  RH  055%=      5-min Rain = 0
KAOS 191635Z 17010KT 28/17 A3003 RMK A01 T02810171  RH  054%=      5-min Rain = 0
KAOS 191640Z 15009KT 28/17 A3003 RMK A01 T02810171  RH  054%=      5-min Rain = 0
KAOS 191645Z 16010KT 28/17 A3003 RMK A01 T02830172  RH  053%=      5-min Rain = 0
KAOS 191650Z 15009KT 28/17 A3002 RMK A01 T02840170  RH  053%=      5-min Rain = 0
KAOS 191655Z 16008KT 28/17 A3002 RMK A01 T02840171  RH  053%=      5-min Rain = 0
KAOS 191700Z 16007KT 29/17 A3002 RMK A01 T02890171  RH  051%=      5-min Rain = 0
KAOS 191705Z 16007KT 29/17 A3002 RMK A01 T02930171  RH  051%=      5-min Rain = 0
KAOS 191710Z 15008KT 29/17 A3002 RMK A01 T02890169  RH  051%=      5-min Rain = 0
KAOS 191715Z 15008G14KT 29/17 A3002 RMK A01 T02930170  RH  050%=      5-min Rain = 0
KAOS 191720Z 15010KT 29/17 A3002 RMK A01 T02940165  RH  048%=      5-min Rain = 0
KAOS 191725Z 16010KT 30/16 A3002 RMK A01 T02950162  RH  047%=      5-min Rain = 0
KAOS 191730Z 15010KT 29/16 A3001 RMK A01 T02910160  RH  047%=      5-min Rain = 0
KAOS 191735Z 15008KT 30/16 A3001 RMK A01 T02950163  RH  047%=      5-min Rain = 0
KAOS 191740Z 16010KT 30/16 A3001 RMK A01 T03010159  RH  045%=      5-min Rain = 0
KAOS 191745Z 16009KT 30/16 A3001 RMK A01 T03040160  RH  044%=      5-min Rain = 0
KAOS 191750Z 14011KT 30/16 A3001 RMK A01 T03040155  RH  043%=      5-min Rain = 0
KAOS 191755Z 14009G14KT 31/16 A30 RMK A01 T03070161  RH  043%=      5-min Rain = 0
KAOS 191800Z 15009KT 31/16 A30 RMK A01 T03090162  RH  043%=      5-min Rain = 0
KAOS 191805Z 15009G14KT 31/16 A30 RMK A01 T03080156  RH  042%=      5-min Rain = 0
KAOS 191810Z 16009KT 31/16 A30 RMK A01 T03050155  RH  042%=      5-min Rain = 0
KAOS 191815Z 15009KT 31/15 A30 RMK A01 T03070153  RH  041%=      5-min Rain = 0
KAOS 191820Z 13008G14KT 31/16 A2999 RMK A01 T03120158  RH  041%=      5-min Rain = 0
KAOS 191825Z 15009KT 31/16 A2999 RMK A01 T03140160  RH  042%=      5-min Rain = 0
KAOS 191830Z 13010G15KT 31/17 A2999 RMK A01 T03140165  RH  043%=      5-min Rain = 0
KAOS 191835Z 12011G16KT 32/17 A2999 RMK A01 T03150166  RH  043%=      5-min Rain = 0
KAOS 191840Z 13010G15KT 32/16 A2999 RMK A01 T03150160  RH  041%=      5-min Rain = 0
KAOS 191845Z 15012G18KT 32/15 A2998 RMK A01 T03150154  RH  040%=      5-min Rain = 0
KAOS 191850Z 15009G15KT 32/16 A2998 RMK A01 T03160155  RH  040%=      5-min Rain = 0
KAOS 191855Z 17007G12KT 32/15 A2998 RMK A01 T03190148  RH  037%=      5-min Rain = 0
KAOS 191900Z 14009G15KT 32/16 A2998 RMK A01 T03230160  RH  039%=      5-min Rain = 0
KAOS 191905Z 14010G15KT 32/16 A2997 RMK A01 T03210157  RH  039%=      5-min Rain = 0
KAOS 191910Z 14009G16KT 32/15 A2997 RMK A01 T03200153  RH  038%=      5-min Rain = 0
KAOS 191915Z 13008G15KT 32/16 A2997 RMK A01 T03220157  RH  039%=      5-min Rain = 0
KAOS 191920Z 14008G13KT 32/15 A2997 RMK A01 T03210152  RH  038%=      5-min Rain = 0
KAOS 191925Z 12007KT 32/15 A2997 RMK A01 T03170151  RH  038%=      5-min Rain = 0
KAOS 191930Z 13012G18KT 32/15 A2997 RMK A01 T03210152  RH  038%=      5-min Rain = 0
KAOS 191935Z 12011KT 32/15 A2996 RMK A01 T03210151  RH  038%=      5-min Rain = 0
KAOS 191940Z 12009G15KT 32/15 A2996 RMK A01 T03230151  RH  037%=      5-min Rain = 0
KAOS 191945Z 11011KT 32/15 A2996 RMK A01 T03220149  RH  037%=      5-min Rain = 0
KAOS 191950Z 13009KT 32/15 A2996 RMK A01 T03240149  RH  036%=      5-min Rain = 0
KAOS 191955Z 14008KT 33/15 A2996 RMK A01 T03270147  RH  035%=      5-min Rain = 0
KAOS 192000Z 15009KT 32/15 A2996 RMK A01 T03200148  RH  037%=      5-min Rain = 0
KAOS 192005Z 14010KT 32/15 A2996 RMK A01 T03180146  RH  037%=      5-min Rain = 0
KAOS 192010Z 12008KT 31/15 A2995 RMK A01 T03130145  RH  038%=      5-min Rain = 0
KAOS 192015Z 11008KT 31/15 A2995 RMK A01 T03110147  RH  039%=      5-min Rain = 0
KAOS 192020Z 12006KT 31/15 A2995 RMK A01 T03120149  RH  039%=      5-min Rain = 0
KAOS 192025Z 14010KT 31/15 A2995 RMK A01 T03130148  RH  038%=      5-min Rain = 0
KAOS 192030Z 14010G15KT 31/15 A2994 RMK A01 T03120145  RH  038%=      5-min Rain = 0
KAOS 192035Z 13012G18KT 31/14 A2994 RMK A01 T03120144  RH  038%=      5-min Rain = 0
KAOS 192040Z 12012KT 32/14 A2993 RMK A01 T03200144  RH  036%=      5-min Rain = 0
KAOS 192045Z 13011G17KT 32/14 A2993 RMK A01 T03240141  RH  035%=      5-min Rain = 0
KAOS 192050Z 14011KT 32/14 A2993 RMK A01 T03240141  RH  035%=      5-min Rain = 0
KAOS 192055Z 15008KT 32/14 A2993 RMK A01 T03190141  RH  035%=      5-min Rain = 0
KAOS 192100Z 15009G15KT 32/14 A2992 RMK A01 T03170141  RH  036%=      5-min Rain = 0
KAOS 192105Z 13009G14KT 32/14 A2992 RMK A01 T03240142  RH  035%=      5-min Rain = 0
KAOS 192110Z 13011G16KT 32/14 A2992 RMK A01 T03220138  RH  034%=      5-min Rain = 0
KAOS 192115Z 13008G13KT 32/14 A2992 RMK A01 T03170139  RH  035%=      5-min Rain = 0
KAOS 192120Z 14008KT 32/14 A2991 RMK A01 T03180136  RH  034%=      5-min Rain = 0
KAOS 192125Z 13007G15KT 32/13 A2991 RMK A01 T03180132  RH  034%=      5-min Rain = 0
KAOS 192130Z 14012G17KT 32/14 A2991 RMK A01 T03190138  RH  035%=      5-min Rain = 0
KAOS 192135Z 14012G17KT 32/14 A2991 RMK A01 T03160136  RH  035%=      5-min Rain = 0
KAOS 192140Z 13012G18KT 32/14 A2991 RMK A01 T03160136  RH  035%=      5-min Rain = 0
KAOS 192145Z 14012G17KT 32/14 A2991 RMK A01 T03210138  RH  034%=      5-min Rain = 0
KAOS 192150Z 14012KT 32/14 A2991 RMK A01 T03180136  RH  035%=      5-min Rain = 0
KAOS 192155Z 12010G15KT 32/14 A299 RMK A01 T03160139  RH  035%=      5-min Rain = 0
KAOS 192200Z 13012KT 32/14 A299 RMK A01 T03220141  RH  035%=      5-min Rain = 0
KAOS 192205Z 14014G19KT 32/14 A299 RMK A01 T03150139  RH  036%=      5-min Rain = 0
KAOS 192210Z 14013G18KT 31/14 A299 RMK A01 T03130138  RH  036%=      5-min Rain = 0
KAOS 192215Z 14014G19KT 31/14 A299 RMK A01 T03130138  RH  036%=      5-min Rain = 0
KAOS 192220Z 13011KT 31/14 A299 RMK A01 T03130139  RH  036%=      5-min Rain = 0
KAOS 192225Z 14011G17KT 32/14 A299 RMK A01 T03220144  RH  036%=      5-min Rain = 0
KAOS 192230Z 15013G18KT 32/14 A299 RMK A01 T03210141  RH  035%=      5-min Rain = 0
KAOS 192235Z 15012KT 31/14 A299 RMK A01 T03140139  RH  036%=      5-min Rain = 0
KAOS 192240Z 14013KT 31/14 A299 RMK A01 T03110144  RH  038%=      5-min Rain = 0
KAOS 192245Z 14017G23KT 31/15 A299 RMK A01 T03090146  RH  039%=      5-min Rain = 0
KAOS 192250Z 14018G24KT 30/14 A299 RMK A01 T03030143  RH  039%=      5-min Rain = 0
KAOS 192255Z 15018G24KT 30/14 A2991 RMK A01 T03000137  RH  039%=      5-min Rain = 0
KAOS 192300Z 14019G26KT 30/13 A2991 RMK A01 T02960129  RH  037%=      5-min Rain = 0
KAOS 192305Z 14017G24KT 30/13 A2991 RMK A01 T02950131  RH  038%=      5-min Rain = 0
KAOS 192310Z 15016G21KT 30/13 A2991 RMK A01 T02970133  RH  038%=      5-min Rain = 0
KAOS 192315Z 15018KT 30/13 A2992 RMK A01 T02950134  RH  039%=      5-min Rain = 0
KAOS 192320Z 14015G20KT 29/13 A2991 RMK A01 T02930130  RH  038%=      5-min Rain = 0
KAOS 192325Z 14016G21KT 30/13 A2991 RMK A01 T02970129  RH  037%=      5-min Rain = 0
KAOS 192330Z 14016G21KT 30/13 A2991 RMK A01 T02960132  RH  038%=      5-min Rain = 0
KAOS 192335Z 15014G19KT 29/14 A299 RMK A01 T02920140  RH  041%=      5-min Rain = 0
KAOS 192340Z 14015G20KT 29/14 A299 RMK A01 T02890142  RH  042%=      5-min Rain = 0
KAOS 192345Z 14014G20KT 29/14 A299 RMK A01 T02910143  RH  042%=      5-min Rain = 0
KAOS 192350Z 13015KT 29/14 A2991 RMK A01 T02930143  RH  042%=      5-min Rain = 0
KAOS 192355Z 14012KT 29/14 A2991 RMK A01 T02940143  RH  042%=      5-min Rain = 0
KAOS 200000Z 13013KT 29/14 A2991 RMK A01 T02940139  RH  041%=      5-min Rain = 0
KAOS 200005Z 13013G18KT 29/14 A299 RMK A01 T02930137  RH  040%=      5-min Rain = 0
KAOS 200010Z 14012KT 29/14 A299 RMK A01 T02910136  RH  040%=      5-min Rain = 0
KAOS 200015Z 14013KT 29/14 A299 RMK A01 T02900136  RH  040%=      5-min Rain = 0
KAOS 200020Z 14012KT 29/14 A2991 RMK A01 T02890137  RH  041%=      5-min Rain = 0
KAOS 200025Z 14011KT 29/13 A2991 RMK A01 T02880132  RH  040%=      5-min Rain = 0
KAOS 200030Z 13010KT 29/14 A2991 RMK A01 T02870135  RH  041%=      5-min Rain = 0
KAOS 200035Z 14008KT 29/14 A2991 RMK A01 T02850135  RH  041%=      5-min Rain = 0
KAOS 200040Z 14008KT 28/14 A2992 RMK A01 T02830135  RH  042%=      5-min Rain = 0
KAOS 200045Z 14008KT 28/14 A2992 RMK A01 T02810135  RH  042%=      5-min Rain = 0
KAOS 200050Z 13007KT 28/14 A2992 RMK A01 T02800135  RH  043%=      5-min Rain = 0
KAOS 200055Z 13006KT 28/14 A2992 RMK A01 T02800136  RH  043%=      5-min Rain = 0
KAOS 200100Z 13006KT 28/14 A2993 RMK A01 T02790139  RH  044%=      5-min Rain = 0
KAOS 200105Z 13005KT 28/14 A2993 RMK A01 T02760140  RH  045%=      5-min Rain = 0
KAOS 200110Z 12004KT 28/14 A2993 RMK A01 T02750142  RH  046%=      5-min Rain = 0
KAOS 200115Z 11004KT 27/15 A2993 RMK A01 T02730146  RH  048%=      5-min Rain = 0
KAOS 200120Z 09003KT 27/15 A2993 RMK A01 T02700149  RH  050%=      5-min Rain = 0
KAOS 200125Z 34004KT 26/15 A2994 RMK A01 T02640153  RH  053%=      5-min Rain = 0
KAOS 200130Z 36007KT 25/16 A2994 RMK A01 T02500157  RH  059%=      5-min Rain = 0
KAOS 200135Z 35007KT 25/16 A2995 RMK A01 T02460157  RH  060%=      5-min Rain = 0
KAOS 200140Z 01012G18KT 24/16 A2995 RMK A01 T02430161  RH  063%=      5-min Rain = 0
KAOS 200145Z 02014G19KT 24/17 A2995 RMK A01 T02360165  RH  068%=      5-min Rain = 0
KAOS 200150Z 02013G19KT 23/17 A2995 RMK A01 T02320167  RH  070%=      5-min Rain = 0
KAOS 200155Z 03014G19KT 23/17 A2996 RMK A01 T02280169  RH  073%=      5-min Rain = 0
KAOS 200200Z 03014KT 22/17 A2996 RMK A01 T02240168  RH  074%=      5-min Rain = 0
KAOS 200205Z 03012G19KT 22/17 A2997 RMK A01 T02220165  RH  073%=      5-min Rain = 0
KAOS 200210Z 03013G20KT 22/16 A2997 RMK A01 T02210161  RH  072%=      5-min Rain = 0
KAOS 200215Z 03013G19KT 22/16 A2998 RMK A01 T02180160  RH  073%=      5-min Rain = 0
KAOS 200220Z 03013G19KT 22/16 A2998 RMK A01 T02160160  RH  074%=      5-min Rain = 0
KAOS 200225Z 04013KT 21/16 A2998 RMK A01 T02130161  RH  076%=      5-min Rain = 0
KAOS 200230Z 04012G17KT 21/16 A2999 RMK A01 T02110162  RH  077%=      5-min Rain = 0
KAOS 200235Z 04013G20KT 21/16 A2999 RMK A01 T02090163  RH  078%=      5-min Rain = 0
KAOS 200240Z 04016KT 21/16 A2999 RMK A01 T02060163  RH  080%=      5-min Rain = 0
KAOS 200245Z 04014KT 21/16 A2999 RMK A01 T02050163  RH  081%=      5-min Rain = 0
KAOS 200250Z 05014G20KT 21/16 A2999 RMK A01 T02050163  RH  080%=      5-min Rain = 0
KAOS 200255Z 04016G22KT 21/16 A2999 RMK A01 T02050162  RH  080%=      5-min Rain = 0
KAOS 200300Z 04014G21KT 20/16 A2999 RMK A01 T02040161  RH  080%=      5-min Rain = 0
KAOS 200305Z 04015KT 20/16 A30 RMK A01 T02030161  RH  081%=      5-min Rain = 0
KAOS 200310Z 04012KT 20/16 A30 RMK A01 T02020161  RH  081%=      5-min Rain = 0
KAOS 200315Z 04014G20KT 20/16 A30 RMK A01 T02010161  RH  082%=      5-min Rain = 0
KAOS 200320Z 04014KT 20/16 A3001 RMK A01 T02010161  RH  082%=      5-min Rain = 0
KAOS 200325Z 04015G21KT 20/16 A3001 RMK A01 T02010162  RH  082%=      5-min Rain = 0
KAOS 200330Z 04015KT 20/16 A3001 RMK A01 T02010162  RH  082%=      5-min Rain = 0
KAOS 200335Z 04015G20KT 20/16 A3002 RMK A01 T02020163  RH  082%=      5-min Rain = 0
KAOS 200340Z 05015G20KT 20/16 A3002 RMK A01 T02020164  RH  083%=      5-min Rain = 0
KAOS 200345Z 05017G26KT 20/17 A3002 RMK A01 T02030165  RH  083%=      5-min Rain = 0
KAOS 200350Z 05019G24KT 20/17 A3002 RMK A01 T02040165  RH  082%=      5-min Rain = 0
KAOS 200355Z 05018G25KT 20/16 A3002 RMK A01 T02030164  RH  082%=      5-min Rain = 0
KAOS 200400Z 05019G26KT 20/17 A3002 RMK A01 T02020165  RH  083%=      5-min Rain = 0
KAOS 200405Z 05019G25KT 20/17 A3002 RMK A01 T02000165  RH  084%=      5-min Rain = 0
KAOS 200410Z 05017G23KT 20/16 A3002 RMK A01 T01980164  RH  085%=      5-min Rain = 0
KAOS 200415Z 06020G27KT 20/16 A3002 RMK A01 T01970163  RH  085%=      5-min Rain = 0
KAOS 200420Z 06017G24KT 20/16 A3002 RMK A01 T01970161  RH  083%=      5-min Rain = 0
KAOS 200425Z 06016G25KT 20/16 A3002 RMK A01 T01970160  RH  083%=      5-min Rain = 0
KAOS 200430Z 06017G23KT 20/16 A3002 RMK A01 T01960160  RH  083%=      5-min Rain = 0
KAOS 200435Z 06017G24KT 20/16 A3003 RMK A01 T01950158  RH  083%=      5-min Rain = 0
KAOS 200440Z 06015G23KT 19/16 A3003 RMK A01 T01940158  RH  083%=      5-min Rain = 0
KAOS 200445Z 06016KT 19/16 A3002 RMK A01 T01940157  RH  083%=      5-min Rain = 0
KAOS 200450Z 06017G22KT 19/16 A3002 RMK A01 T01940156  RH  082%=      5-min Rain = 0
KAOS 200455Z 06017G23KT 20/16 A3002 RMK A01 T01950155  RH  081%=      5-min Rain = 0

Page generated in 0.0091 seconds.